createdAt,value
2023-03-13T00:00:07.471Z,94.60
2023-03-13T00:02:31.998Z,94.50
2023-03-13T00:04:56.501Z,94.30
2023-03-13T00:07:20.978Z,94.20
2023-03-13T00:09:45.458Z,94.00
2023-03-13T00:12:10.311Z,94.50
2023-03-13T00:14:36.054Z,94.00
2023-03-13T00:17:01.183Z,93.90
2023-03-13T00:19:25.666Z,94.20
2023-03-13T00:21:50.034Z,93.90
2023-03-13T00:24:15.049Z,93.90
2023-03-13T00:26:39.600Z,93.90
2023-03-13T00:29:04.283Z,93.80
2023-03-13T00:31:31.852Z,93.90
2023-03-13T00:34:00.278Z,94.20
2023-03-13T00:36:27.105Z,94.10
2023-03-13T00:38:52.131Z,94.30
2023-03-13T00:41:18.421Z,94.40
2023-03-13T00:43:43.837Z,94.30
2023-03-13T00:46:09.543Z,94.30
2023-03-13T00:48:38.041Z,94.70
2023-03-13T00:51:02.995Z,94.80
2023-03-13T00:53:27.529Z,94.70
2023-03-13T00:55:56.504Z,94.80
2023-03-13T00:58:21.538Z,94.80
2023-03-13T01:00:46.119Z,94.80
2023-03-13T01:03:10.700Z,94.70
2023-03-13T01:05:36.837Z,94.70
2023-03-13T01:08:01.398Z,94.90
2023-03-13T01:10:26.024Z,94.80
2023-03-13T01:12:50.541Z,95.10
2023-03-13T01:15:15.387Z,95.30
2023-03-13T01:17:39.752Z,95.40
2023-03-13T01:20:05.731Z,95.10
2023-03-13T01:22:31.548Z,95.40
2023-03-13T01:24:57.459Z,95.20
2023-03-13T01:27:21.837Z,95.20
2023-03-13T01:29:46.136Z,95.70
2023-03-13T01:32:10.623Z,96.10
2023-03-13T01:34:35.079Z,96.10
2023-03-13T01:36:59.443Z,96.30
2023-03-13T01:39:25.306Z,96.70
2023-03-13T01:41:49.750Z,96.10
2023-03-13T01:44:23.547Z,96.40
2023-03-13T01:46:48.773Z,96.00
2023-03-13T01:49:22.312Z,96.20
2023-03-13T01:52:04.736Z,96.40
2023-03-13T01:54:39.228Z,96.00
2023-03-13T01:57:07.759Z,96.30
2023-03-13T01:59:37.236Z,95.90
2023-03-13T02:02:04.248Z,96.30
2023-03-13T02:04:33.120Z,96.40
2023-03-13T02:07:03.117Z,96.60
2023-03-13T02:09:28.291Z,96.30
2023-03-13T02:11:58.216Z,96.50
2023-03-13T02:14:24.433Z,97.10
2023-03-13T02:16:52.065Z,97.20
2023-03-13T02:19:20.560Z,96.90
2023-03-13T02:21:51.431Z,96.70
2023-03-13T02:24:23.463Z,96.50
2023-03-13T02:26:49.319Z,96.20
2023-03-13T02:29:18.603Z,96.80
2023-03-13T02:31:43.391Z,97.30
2023-03-13T02:34:07.933Z,97.10
2023-03-13T02:36:32.858Z,97.30
2023-03-13T02:39:01.428Z,97.60
2023-03-13T02:41:28.103Z,97.40
2023-03-13T02:43:55.893Z,97.60
2023-03-13T02:46:22.999Z,98.00
2023-03-13T02:48:52.280Z,98.50
2023-03-13T02:51:21.543Z,99.50
2023-03-13T02:53:47.444Z,99.40
2023-03-13T02:56:14.708Z,99.10
2023-03-13T02:58:49.719Z,99.00
2023-03-13T03:01:18.764Z,98.70
2023-03-13T03:03:43.851Z,98.70
2023-03-13T03:06:09.361Z,98.80
2023-03-13T03:08:34.219Z,98.90
2023-03-13T03:10:59.209Z,98.50
2023-03-13T03:13:23.686Z,98.80
2023-03-13T03:15:48.238Z,98.70
2023-03-13T03:18:14.082Z,99.00
2023-03-13T03:20:39.490Z,98.80
2023-03-13T03:23:06.063Z,97.40
2023-03-13T03:25:30.915Z,97.20
2023-03-13T03:27:55.485Z,98.40
2023-03-13T03:30:20.138Z,98.60
2023-03-13T03:32:44.895Z,98.70
2023-03-13T03:35:11.241Z,98.50
2023-03-13T03:37:35.782Z,99.00
2023-03-13T03:40:01.755Z,99.00
2023-03-13T03:42:28.601Z,99.00
2023-03-13T03:44:53.125Z,98.70
2023-03-13T03:47:17.639Z,98.20
2023-03-13T03:49:44.789Z,97.50
2023-03-13T03:52:14.268Z,97.50
2023-03-13T03:54:40.686Z,97.40
2023-03-13T03:57:05.168Z,97.50
2023-03-13T03:59:30.561Z,97.40
2023-03-13T04:01:59.773Z,97.70
2023-03-13T04:04:26.744Z,97.50
2023-03-13T04:06:58.266Z,98.00
2023-03-13T04:09:26.363Z,97.70
2023-03-13T04:11:51.053Z,98.00
2023-03-13T04:14:16.011Z,97.10
2023-03-13T04:16:41.399Z,97.20
2023-03-13T04:19:07.507Z,98.00
2023-03-13T04:21:33.739Z,98.50
2023-03-13T04:24:02.723Z,99.20
2023-03-13T04:26:29.436Z,99.20
2023-03-13T04:28:56.104Z,98.90
2023-03-13T04:31:40.713Z,98.90
2023-03-13T04:34:34.444Z,98.60
2023-03-13T04:37:36.973Z,99.50
2023-03-13T04:40:14.304Z,99.40
2023-03-13T04:42:42.912Z,99.20
2023-03-13T04:45:22.715Z,98.80
2023-03-13T04:47:49.888Z,97.50
2023-03-13T04:50:34.583Z,97.20
2023-03-13T04:53:19.412Z,97.20
2023-03-13T04:56:08.167Z,95.70
2023-03-13T04:58:47.029Z,94.30
2023-03-13T05:01:46.897Z,92.90
2023-03-13T05:04:30.963Z,91.90
2023-03-13T05:07:15.686Z,91.00
2023-03-13T05:10:15.735Z,89.30
2023-03-13T05:12:43.641Z,88.80
2023-03-13T05:15:19.015Z,88.20
2023-03-13T05:18:02.055Z,89.80
2023-03-13T05:20:56.345Z,87.70
2023-03-13T05:23:49.623Z,88.20
2023-03-13T05:26:37.161Z,86.30
2023-03-13T05:29:15.013Z,85.60
2023-03-13T05:32:07.423Z,85.60
2023-03-13T05:34:52.491Z,84.40
2023-03-13T05:37:41.251Z,83.40
2023-03-13T05:40:37.967Z,86.60
2023-03-13T05:43:14.783Z,85.90
2023-03-13T05:45:56.629Z,86.60
2023-03-13T05:48:42.681Z,84.00
2023-03-13T05:51:25.957Z,83.50
2023-03-13T05:53:59.658Z,82.60
2023-03-13T05:56:48.766Z,81.60
2023-03-13T05:59:28.713Z,79.30
2023-03-13T06:02:05.543Z,78.80
2023-03-13T06:04:37.751Z,77.30
2023-03-13T06:07:02.386Z,76.70
2023-03-13T06:09:26.766Z,76.00
2023-03-13T06:11:53.196Z,75.60
2023-03-13T06:14:19.897Z,78.10
2023-03-13T06:16:57.188Z,82.70
2023-03-13T06:19:24.631Z,83.60
2023-03-13T06:21:50.434Z,83.00
2023-03-13T06:24:14.923Z,82.00
2023-03-13T06:26:39.361Z,80.60
2023-03-13T06:29:06.914Z,79.60
2023-03-13T06:31:31.358Z,78.90
2023-03-13T06:33:56.156Z,79.10
2023-03-13T06:36:20.659Z,78.50
2023-03-13T06:38:46.419Z,78.20
2023-03-13T06:41:10.962Z,78.50
2023-03-13T06:43:35.476Z,78.30
2023-03-13T06:46:05.285Z,77.50
2023-03-13T06:48:29.677Z,76.20
2023-03-13T06:50:57.636Z,78.00
2023-03-13T06:53:22.245Z,78.80
2023-03-13T06:55:49.204Z,79.70
2023-03-13T06:58:25.292Z,80.50
2023-03-13T07:00:55.350Z,82.40
2023-03-13T07:03:19.908Z,82.80
2023-03-13T07:05:44.451Z,82.20
2023-03-13T07:08:09.555Z,81.90
2023-03-13T07:10:34.363Z,79.70
2023-03-13T07:13:00.124Z,78.70
2023-03-13T07:15:24.706Z,78.90
2023-03-13T07:17:49.184Z,79.10
2023-03-13T07:20:16.519Z,78.60
2023-03-13T07:22:42.112Z,76.20
2023-03-13T07:25:07.568Z,74.20
2023-03-13T07:27:32.026Z,73.50
2023-03-13T07:29:58.412Z,72.70
2023-03-13T07:32:22.847Z,72.80
2023-03-13T07:34:47.484Z,73.10
2023-03-13T07:37:12.229Z,73.70
2023-03-13T07:39:38.186Z,74.20
2023-03-13T07:42:02.644Z,75.00
2023-03-13T07:44:27.032Z,74.50
2023-03-13T07:46:53.050Z,74.30
2023-03-13T07:49:20.609Z,74.60
2023-03-13T07:51:47.946Z,74.00
2023-03-13T07:54:12.430Z,73.20
2023-03-13T07:56:36.986Z,72.80
2023-03-13T07:59:01.431Z,72.60
2023-03-13T08:01:30.438Z,73.20
2023-03-13T08:03:56.750Z,72.00
2023-03-13T08:06:23.477Z,71.80
2023-03-13T08:08:48.710Z,72.10
2023-03-13T08:11:15.318Z,70.80
2023-03-13T08:13:40.036Z,71.40
2023-03-13T08:16:06.859Z,70.80
2023-03-13T08:18:34.836Z,71.90
2023-03-13T08:21:08.112Z,71.40
2023-03-13T08:23:32.735Z,71.30
2023-03-13T08:25:57.136Z,70.90
2023-03-13T08:28:21.670Z,70.50
2023-03-13T08:30:47.092Z,70.30
2023-03-13T08:33:11.625Z,71.00
2023-03-13T08:35:36.107Z,70.70
2023-03-13T08:38:02.769Z,70.60
2023-03-13T08:40:27.240Z,70.70
2023-03-13T08:42:51.792Z,70.40
2023-03-13T08:45:16.442Z,70.30
2023-03-13T08:47:41.014Z,70.10
2023-03-13T08:50:06.170Z,69.80
2023-03-13T08:52:33.079Z,69.40
2023-03-13T08:54:58.887Z,69.10
2023-03-13T08:57:24.369Z,69.20
2023-03-13T08:59:49.644Z,69.20
2023-03-13T09:02:19.935Z,69.00
2023-03-13T09:04:44.577Z,69.20
2023-03-13T09:07:10.284Z,67.10
2023-03-13T09:09:34.796Z,67.60
2023-03-13T09:12:03.386Z,67.20
2023-03-13T09:14:28.215Z,67.60
2023-03-13T09:16:53.117Z,67.60
2023-03-13T09:19:19.116Z,67.30
2023-03-13T09:21:43.907Z,67.30
2023-03-13T09:24:09.143Z,67.40
2023-03-13T09:26:33.618Z,66.60
2023-03-13T09:29:00.663Z,66.30
2023-03-13T09:31:26.896Z,66.50
2023-03-13T09:33:54.504Z,65.40
2023-03-13T09:36:22.061Z,65.40
2023-03-13T09:38:50.092Z,66.20
2023-03-13T09:41:24.095Z,65.80
2023-03-13T09:43:52.490Z,65.20
2023-03-13T09:46:24.707Z,63.80
2023-03-13T09:48:52.500Z,63.10
2023-03-13T09:51:22.668Z,64.30
2023-03-13T09:53:53.584Z,63.40
2023-03-13T09:56:23.814Z,62.90
2023-03-13T09:58:54.531Z,63.30
2023-03-13T10:01:25.961Z,62.70
2023-03-13T10:04:02.616Z,62.50
2023-03-13T10:06:30.213Z,64.40
2023-03-13T10:08:55.022Z,62.80
2023-03-13T10:11:27.001Z,61.90
2023-03-13T10:13:54.815Z,63.80
2023-03-13T10:16:25.648Z,62.70
2023-03-13T10:18:54.615Z,61.00
2023-03-13T10:21:21.192Z,62.00
2023-03-13T10:23:50.259Z,61.70
2023-03-13T10:26:18.090Z,61.30
2023-03-13T10:28:42.617Z,61.80
2023-03-13T10:31:13.330Z,59.20
2023-03-13T10:33:40.041Z,58.60
2023-03-13T10:36:08.953Z,59.90
2023-03-13T10:38:36.163Z,61.00
2023-03-13T10:41:03.545Z,58.80
2023-03-13T10:43:29.765Z,57.30
2023-03-13T10:45:54.414Z,58.60
2023-03-13T10:48:24.327Z,59.10
2023-03-13T10:50:51.151Z,58.50
2023-03-13T10:53:33.496Z,57.90
2023-03-13T10:56:04.312Z,58.70
2023-03-13T10:58:35.708Z,60.10
2023-03-13T11:01:17.572Z,59.00
2023-03-13T11:03:42.405Z,58.90
2023-03-13T11:06:09.128Z,60.20
2023-03-13T11:08:37.781Z,61.20
2023-03-13T11:11:04.436Z,61.30
2023-03-13T11:13:42.942Z,59.90
2023-03-13T11:16:20.763Z,58.90
2023-03-13T11:18:56.141Z,59.50
2023-03-13T11:21:31.188Z,59.30
2023-03-13T11:24:02.066Z,59.80
2023-03-13T11:26:34.744Z,59.50
2023-03-13T11:29:05.142Z,59.60
2023-03-13T11:31:33.983Z,58.60
2023-03-13T11:34:05.310Z,58.60
2023-03-13T11:36:36.768Z,59.40
2023-03-13T11:39:16.622Z,59.40
2023-03-13T11:42:01.044Z,58.90
2023-03-13T11:44:39.781Z,58.70
2023-03-13T11:47:24.240Z,59.40
2023-03-13T11:50:05.024Z,59.70
2023-03-13T11:52:44.987Z,59.00
2023-03-13T11:55:17.753Z,59.10
2023-03-13T11:57:50.646Z,59.30
2023-03-13T12:00:24.247Z,58.50
2023-03-13T12:02:53.141Z,58.10
2023-03-13T12:05:20.556Z,57.70
2023-03-13T12:07:50.756Z,57.50
2023-03-13T12:10:17.705Z,58.10
2023-03-13T12:12:48.103Z,58.50
2023-03-13T12:15:22.787Z,58.30
2023-03-13T12:17:52.638Z,58.30
2023-03-13T12:20:23.702Z,58.80
2023-03-13T12:22:56.478Z,58.70
2023-03-13T12:25:26.039Z,58.20
2023-03-13T12:27:54.082Z,58.40
2023-03-13T12:30:30.631Z,58.40
2023-03-13T12:33:02.624Z,58.60
2023-03-13T12:35:29.945Z,58.70
2023-03-13T12:38:03.701Z,59.00
2023-03-13T12:40:34.905Z,59.20
2023-03-13T12:43:05.983Z,59.80
2023-03-13T12:45:30.657Z,59.70
2023-03-13T12:48:33.841Z,59.80
2023-03-13T12:51:12.616Z,59.10
2023-03-13T12:54:15.996Z,59.30
2023-03-13T12:56:58.650Z,59.30
2023-03-13T12:59:25.842Z,58.90
2023-03-13T13:01:54.637Z,57.70
2023-03-13T13:04:21.212Z,58.90
2023-03-13T13:06:56.176Z,59.80
2023-03-13T13:09:25.183Z,59.10
2023-03-13T13:11:52.371Z,59.60
2023-03-13T13:14:50.353Z,59.60
2023-03-13T13:17:21.888Z,59.40
2023-03-13T13:19:47.537Z,58.80
2023-03-13T13:22:52.096Z,58.70
2023-03-13T13:25:35.184Z,58.20
2023-03-13T13:28:23.603Z,57.90
2023-03-13T13:30:48.174Z,57.70
2023-03-13T13:33:41.182Z,58.00
2023-03-13T13:36:29.514Z,57.80
2023-03-13T13:38:56.237Z,57.90
2023-03-13T13:41:39.027Z,57.30
2023-03-13T13:44:23.995Z,57.60
2023-03-13T13:46:48.959Z,57.10
2023-03-13T13:49:19.290Z,57.10
2023-03-13T13:52:04.591Z,57.50
2023-03-13T13:54:56.958Z,58.00
2023-03-13T13:57:24.376Z,57.60
2023-03-13T13:59:51.382Z,57.30
2023-03-13T14:02:26.635Z,57.90
2023-03-13T14:04:56.910Z,58.10
2023-03-13T14:07:29.126Z,57.90
2023-03-13T14:10:01.601Z,57.80
2023-03-13T14:12:30.994Z,57.40
2023-03-13T14:15:09.543Z,57.60
2023-03-13T14:17:39.638Z,57.50
2023-03-13T14:20:06.153Z,57.60
2023-03-13T14:22:46.626Z,57.70
2023-03-13T14:25:11.395Z,57.30
2023-03-13T14:27:44.793Z,57.70
2023-03-13T14:30:10.889Z,57.70
2023-03-13T14:32:36.741Z,57.50
2023-03-13T14:35:01.584Z,57.30
2023-03-13T14:37:37.331Z,56.80
2023-03-13T14:40:10.031Z,56.60
2023-03-13T14:42:49.301Z,56.70
2023-03-13T14:45:21.651Z,56.60
2023-03-13T14:47:46.116Z,57.00
2023-03-13T14:50:17.831Z,57.90
2023-03-13T14:52:49.105Z,58.70
2023-03-13T14:55:33.351Z,58.90
2023-03-13T14:58:01.244Z,58.80
2023-03-13T15:00:44.405Z,58.60
2023-03-13T15:03:22.701Z,58.80
2023-03-13T15:05:48.940Z,58.80
2023-03-13T15:08:15.813Z,58.90
2023-03-13T15:10:40.950Z,59.00
2023-03-13T15:13:18.456Z,59.30
2023-03-13T15:15:43.212Z,59.50
2023-03-13T15:18:18.688Z,59.40
2023-03-13T15:20:43.175Z,59.70
2023-03-13T15:23:12.242Z,59.80
2023-03-13T15:25:40.745Z,60.20
2023-03-13T15:28:05.141Z,60.10
2023-03-13T15:30:31.216Z,60.20
2023-03-13T15:32:55.700Z,60.40
2023-03-13T15:35:27.347Z,60.20
2023-03-13T15:37:51.900Z,60.50
2023-03-13T15:40:17.966Z,60.40
2023-03-13T15:42:42.491Z,60.40
2023-03-13T15:45:08.556Z,60.50
2023-03-13T15:47:34.502Z,60.60
2023-03-13T15:49:58.870Z,60.70
2023-03-13T15:52:23.707Z,60.90
2023-03-13T15:54:48.151Z,61.60
2023-03-13T15:57:17.795Z,60.80
2023-03-13T15:59:42.463Z,60.50
2023-03-13T16:02:18.106Z,60.80
2023-03-13T16:04:44.369Z,60.90
2023-03-13T16:07:11.799Z,61.20
2023-03-13T16:09:36.225Z,61.00
2023-03-13T16:12:00.719Z,61.20
2023-03-13T16:14:25.053Z,61.60
2023-03-13T16:16:52.778Z,61.90
2023-03-13T16:19:17.553Z,62.10
2023-03-13T16:21:48.305Z,62.40
2023-03-13T16:24:12.834Z,62.50
2023-03-13T16:26:37.245Z,62.70
2023-03-13T16:29:01.724Z,62.90
2023-03-13T16:31:28.636Z,63.10
2023-03-13T16:33:55.183Z,63.10
2023-03-13T16:36:24.648Z,63.80
2023-03-13T16:38:50.851Z,63.20
2023-03-13T16:41:18.827Z,63.30
2023-03-13T16:43:43.411Z,63.40
2023-03-13T16:46:15.351Z,63.60
2023-03-13T16:48:40.304Z,63.80
2023-03-13T16:51:07.365Z,64.10
2023-03-13T16:53:31.887Z,64.10
2023-03-13T16:55:58.724Z,64.20
2023-03-13T16:58:25.531Z,64.20
2023-03-13T17:01:04.599Z,64.40
2023-03-13T17:03:29.681Z,64.60
2023-03-13T17:05:54.176Z,65.00
2023-03-13T17:08:18.684Z,65.00
2023-03-13T17:10:43.936Z,65.10
2023-03-13T17:13:09.839Z,65.40
2023-03-13T17:15:34.361Z,65.30
2023-03-13T17:18:00.149Z,65.20
2023-03-13T17:20:26.128Z,65.40
2023-03-13T17:22:50.729Z,65.30
2023-03-13T17:25:15.866Z,65.40
2023-03-13T17:27:41.785Z,65.30
2023-03-13T17:30:20.382Z,65.40
2023-03-13T17:32:45.074Z,65.40
2023-03-13T17:35:10.586Z,65.50
2023-03-13T17:37:37.596Z,65.40
2023-03-13T17:40:02.030Z,65.40
2023-03-13T17:42:27.266Z,65.40
2023-03-13T17:44:51.777Z,65.40
2023-03-13T17:47:19.436Z,65.40
2023-03-13T17:49:44.267Z,65.20
2023-03-13T17:52:11.572Z,65.30
2023-03-13T17:54:36.050Z,65.50
2023-03-13T17:57:00.524Z,65.40
2023-03-13T17:59:24.837Z,65.60
2023-03-13T18:01:49.426Z,65.80
2023-03-13T18:04:15.782Z,66.00
2023-03-13T18:06:43.532Z,65.60
2023-03-13T18:09:13.254Z,65.60
2023-03-13T18:11:38.641Z,65.80
2023-03-13T18:14:04.324Z,66.20
2023-03-13T18:16:37.667Z,66.50
2023-03-13T18:19:02.262Z,66.80
2023-03-13T18:21:28.106Z,67.00
2023-03-13T18:23:53.540Z,67.20
2023-03-13T18:26:24.250Z,67.50
2023-03-13T18:28:48.875Z,68.10
2023-03-13T18:31:15.933Z,68.30
2023-03-13T18:33:41.785Z,68.60
2023-03-13T18:36:26.159Z,69.10
2023-03-13T18:38:52.005Z,69.00
2023-03-13T18:41:17.137Z,69.40
2023-03-13T18:43:41.544Z,69.90
2023-03-13T18:46:06.593Z,69.90
2023-03-13T18:48:31.357Z,70.20
2023-03-13T18:50:55.736Z,70.60
2023-03-13T18:53:20.066Z,70.10
2023-03-13T18:55:45.857Z,70.20
2023-03-13T18:58:11.854Z,70.90
2023-03-13T19:00:36.339Z,71.20
2023-03-13T19:03:00.795Z,71.30
2023-03-13T19:05:25.635Z,70.60
2023-03-13T19:07:50.315Z,70.30
2023-03-13T19:10:22.141Z,71.00
2023-03-13T19:12:48.424Z,71.10
2023-03-13T19:15:14.676Z,71.20
2023-03-13T19:17:39.254Z,71.40
2023-03-13T19:20:04.414Z,71.70
2023-03-13T19:22:28.997Z,71.40
2023-03-13T19:24:53.650Z,71.30
2023-03-13T19:27:18.867Z,71.50
2023-03-13T19:29:45.527Z,71.60
2023-03-13T19:32:15.023Z,71.80
2023-03-13T19:34:39.331Z,71.50
2023-03-13T19:37:03.903Z,71.80
2023-03-13T19:39:28.261Z,71.80
2023-03-13T19:41:53.112Z,72.00
2023-03-13T19:44:18.655Z,72.10
2023-03-13T19:46:44.583Z,72.20
2023-03-13T19:49:11.427Z,72.10
2023-03-13T19:51:35.850Z,72.40
2023-03-13T19:54:00.298Z,72.50
2023-03-13T19:56:26.990Z,72.80
2023-03-13T19:58:53.048Z,73.00
2023-03-13T20:01:18.197Z,73.10
2023-03-13T20:03:44.413Z,73.20
2023-03-13T20:06:11.837Z,73.10
2023-03-13T20:08:36.236Z,73.50
2023-03-13T20:11:00.778Z,73.40
2023-03-13T20:13:25.210Z,73.80
2023-03-13T20:15:49.695Z,73.80
2023-03-13T20:18:14.093Z,74.00
2023-03-13T20:20:41.178Z,74.00
2023-03-13T20:23:05.764Z,74.00
2023-03-13T20:25:30.457Z,74.00
2023-03-13T20:27:54.985Z,74.00
2023-03-13T20:30:19.939Z,74.50
2023-03-13T20:32:58.581Z,74.50
2023-03-13T20:35:23.840Z,75.10
2023-03-13T20:37:50.149Z,76.30
2023-03-13T20:40:15.273Z,76.60
2023-03-13T20:42:40.180Z,77.00
2023-03-13T20:45:04.654Z,77.20
2023-03-13T20:47:29.276Z,77.40
2023-03-13T20:49:53.768Z,77.70
2023-03-13T20:52:19.031Z,77.30
2023-03-13T20:54:44.978Z,77.40
2023-03-13T20:57:09.741Z,77.50
2023-03-13T20:59:34.176Z,78.10
2023-03-13T21:01:58.735Z,78.60
2023-03-13T21:04:23.215Z,78.60
2023-03-13T21:06:47.605Z,78.80
2023-03-13T21:09:13.529Z,78.50
2023-03-13T21:11:39.295Z,78.50
2023-03-13T21:14:03.792Z,78.30
2023-03-13T21:16:28.343Z,78.30
2023-03-13T21:18:52.711Z,78.50
2023-03-13T21:21:19.631Z,78.50
2023-03-13T21:23:45.897Z,79.20
2023-03-13T21:26:10.557Z,78.50
2023-03-13T21:28:37.468Z,78.10
2023-03-13T21:31:09.586Z,81.00
2023-03-13T21:33:34.040Z,82.80
2023-03-13T21:35:58.448Z,83.30
2023-03-13T21:38:22.837Z,83.90
2023-03-13T21:40:47.378Z,84.30
2023-03-13T21:43:11.824Z,84.90
2023-03-13T21:45:37.639Z,85.10
2023-03-13T21:48:02.078Z,85.70
2023-03-13T21:50:26.462Z,84.50
2023-03-13T21:52:50.801Z,83.90
2023-03-13T21:55:15.241Z,83.60
2023-03-13T21:57:40.005Z,83.60
2023-03-13T22:00:08.029Z,82.40
2023-03-13T22:02:39.889Z,82.20
2023-03-13T22:05:12.588Z,82.60
2023-03-13T22:07:37.935Z,82.20
2023-03-13T22:10:02.440Z,81.80
2023-03-13T22:12:27.289Z,81.50
2023-03-13T22:14:52.965Z,81.20
2023-03-13T22:17:19.512Z,81.30
2023-03-13T22:19:45.254Z,82.70
2023-03-13T22:22:09.939Z,81.80
2023-03-13T22:24:34.222Z,82.20
2023-03-13T22:26:58.671Z,81.20
2023-03-13T22:29:24.327Z,80.40
2023-03-13T22:31:49.038Z,80.80
2023-03-13T22:34:13.514Z,80.70
2023-03-13T22:36:39.637Z,80.50
2023-03-13T22:39:04.317Z,81.00
2023-03-13T22:41:29.044Z,80.60
2023-03-13T22:43:54.849Z,80.20
2023-03-13T22:46:21.363Z,80.80
2023-03-13T22:48:45.639Z,80.40
2023-03-13T22:51:12.874Z,79.80
2023-03-13T22:53:41.111Z,80.10
2023-03-13T22:56:05.867Z,79.90
2023-03-13T22:58:30.185Z,80.40
2023-03-13T23:00:55.210Z,79.40
2023-03-13T23:03:19.857Z,79.30
2023-03-13T23:05:46.072Z,79.30
2023-03-13T23:08:10.404Z,79.30
2023-03-13T23:10:37.209Z,79.30
2023-03-13T23:13:01.492Z,79.20
2023-03-13T23:15:26.581Z,79.50
2023-03-13T23:17:53.888Z,79.50
2023-03-13T23:20:18.646Z,79.60
2023-03-13T23:22:44.280Z,79.60
2023-03-13T23:25:09.893Z,79.60
2023-03-13T23:27:36.129Z,79.80
2023-03-13T23:30:04.204Z,79.70
2023-03-13T23:32:28.879Z,79.70
2023-03-13T23:34:53.351Z,79.70
2023-03-13T23:37:18.169Z,79.50
2023-03-13T23:39:42.811Z,79.60
2023-03-13T23:42:08.905Z,79.70
2023-03-13T23:44:34.688Z,79.80
2023-03-13T23:46:58.994Z,80.00
2023-03-13T23:49:23.461Z,80.40
2023-03-13T23:51:47.757Z,80.50
2023-03-13T23:54:12.082Z,80.60
2023-03-13T23:56:37.642Z,80.40
2023-03-13T23:59:02.094Z,80.50
